sensor_id;sensor_type;location;lat;lon;timestamp;temperature;humidity
68578;SHT31;61668;45.388;11.784;2023-01-08T00:00:50;9.50;81.40
68578;SHT31;61668;45.388;11.784;2023-01-08T00:03:16;9.49;81.47
68578;SHT31;61668;45.388;11.784;2023-01-08T00:05:42;9.49;81.50
68578;SHT31;61668;45.388;11.784;2023-01-08T00:08:08;9.49;81.54
68578;SHT31;61668;45.388;11.784;2023-01-08T00:10:35;9.48;81.61
68578;SHT31;61668;45.388;11.784;2023-01-08T00:13:02;9.47;81.68
68578;SHT31;61668;45.388;11.784;2023-01-08T00:15:29;9.47;81.71
68578;SHT31;61668;45.388;11.784;2023-01-08T00:17:55;9.45;81.78
68578;SHT31;61668;45.388;11.784;2023-01-08T00:20:22;9.44;81.82
68578;SHT31;61668;45.388;11.784;2023-01-08T00:22:48;9.43;81.91
68578;SHT31;61668;45.388;11.784;2023-01-08T00:25:15;9.44;81.95
68578;SHT31;61668;45.388;11.784;2023-01-08T00:27:42;9.44;81.95
68578;SHT31;61668;45.388;11.784;2023-01-08T00:30:09;9.45;82.00
68578;SHT31;61668;45.388;11.784;2023-01-08T00:32:35;9.44;82.00
68578;SHT31;61668;45.388;11.784;2023-01-08T00:35:01;9.46;82.00
68578;SHT31;61668;45.388;11.784;2023-01-08T00:37:27;9.46;82.01
68578;SHT31;61668;45.388;11.784;2023-01-08T00:39:53;9.46;82.10
68578;SHT31;61668;45.388;11.784;2023-01-08T00:42:19;9.46;82.09
68578;SHT31;61668;45.388;11.784;2023-01-08T00:44:45;9.46;82.11
68578;SHT31;61668;45.388;11.784;2023-01-08T00:47:10;9.46;82.18
68578;SHT31;61668;45.388;11.784;2023-01-08T00:49:37;9.43;82.20
68578;SHT31;61668;45.388;11.784;2023-01-08T00:52:03;9.43;82.21
68578;SHT31;61668;45.388;11.784;2023-01-08T00:54:29;9.42;82.22
68578;SHT31;61668;45.388;11.784;2023-01-08T00:56:54;9.39;82.30
68578;SHT31;61668;45.388;11.784;2023-01-08T00:59:20;9.37;82.36
68578;SHT31;61668;45.388;11.784;2023-01-08T01:01:46;9.35;82.43
68578;SHT31;61668;45.388;11.784;2023-01-08T01:04:12;9.34;82.50
68578;SHT31;61668;45.388;11.784;2023-01-08T01:06:39;9.31;82.56
68578;SHT31;61668;45.388;11.784;2023-01-08T01:09:08;9.29;82.62
68578;SHT31;61668;45.388;11.784;2023-01-08T01:11:33;9.27;82.73
68578;SHT31;61668;45.388;11.784;2023-01-08T01:14:00;9.25;82.83
68578;SHT31;61668;45.388;11.784;2023-01-08T01:16:26;9.24;82.90
68578;SHT31;61668;45.388;11.784;2023-01-08T01:18:53;9.22;82.94
68578;SHT31;61668;45.388;11.784;2023-01-08T01:21:24;9.21;83.03
68578;SHT31;61668;45.388;11.784;2023-01-08T01:24:03;9.19;83.12
68578;SHT31;61668;45.388;11.784;2023-01-08T01:26:31;9.17;83.21
68578;SHT31;61668;45.388;11.784;2023-01-08T01:28:57;9.17;83.31
68578;SHT31;61668;45.388;11.784;2023-01-08T01:31:25;9.16;83.40
68578;SHT31;61668;45.388;11.784;2023-01-08T01:33:53;9.14;83.43
68578;SHT31;61668;45.388;11.784;2023-01-08T01:36:19;9.14;83.50
68578;SHT31;61668;45.388;11.784;2023-01-08T01:38:51;9.14;83.60
68578;SHT31;61668;45.388;11.784;2023-01-08T01:41:36;9.12;83.68
68578;SHT31;61668;45.388;11.784;2023-01-08T01:47:41;9.10;83.81
68578;SHT31;61668;45.388;11.784;2023-01-08T01:50:06;9.10;83.93
68578;SHT31;61668;45.388;11.784;2023-01-08T01:52:49;9.09;84.00
68578;SHT31;61668;45.388;11.784;2023-01-08T01:55:31;9.10;84.00
68578;SHT31;61668;45.388;11.784;2023-01-08T02:01:04;9.11;84.09
68578;SHT31;61668;45.388;11.784;2023-01-08T02:03:34;9.11;84.12
68578;SHT31;61668;45.388;11.784;2023-01-08T02:14:35;9.13;84.31
68578;SHT31;61668;45.388;11.784;2023-01-08T02:20:23;9.14;84.40
68578;SHT31;61668;45.388;11.784;2023-01-08T02:26:14;9.16;84.41
68578;SHT31;61668;45.388;11.784;2023-01-08T02:28:52;9.17;84.41
68578;SHT31;61668;45.388;11.784;2023-01-08T02:31:24;9.19;84.40
68578;SHT31;61668;45.388;11.784;2023-01-08T02:33:53;9.20;84.40
68578;SHT31;61668;45.388;11.784;2023-01-08T02:36:30;9.20;84.53
68578;SHT31;61668;45.388;11.784;2023-01-08T02:47:52;9.17;84.77
68578;SHT31;61668;45.388;11.784;2023-01-08T02:50:40;9.16;84.80
68578;SHT31;61668;45.388;11.784;2023-01-08T02:53:15;9.15;84.84
68578;SHT31;61668;45.388;11.784;2023-01-08T02:55:49;9.14;84.90
68578;SHT31;61668;45.388;11.784;2023-01-08T02:58:19;9.12;84.91
68578;SHT31;61668;45.388;11.784;2023-01-08T03:00:47;9.11;84.90
68578;SHT31;61668;45.388;11.784;2023-01-08T03:05:54;9.08;85.08
68578;SHT31;61668;45.388;11.784;2023-01-08T03:08:24;9.05;85.18
68578;SHT31;61668;45.388;11.784;2023-01-08T03:10:51;9.03;85.12
68578;SHT31;61668;45.388;11.784;2023-01-08T03:13:31;9.01;85.20
68578;SHT31;61668;45.388;11.784;2023-01-08T03:16:08;8.98;85.20
68578;SHT31;61668;45.388;11.784;2023-01-08T03:18:40;8.97;85.27
68578;SHT31;61668;45.388;11.784;2023-01-08T03:21:13;8.95;85.30
68578;SHT31;61668;45.388;11.784;2023-01-08T03:23:40;8.94;85.30
68578;SHT31;61668;45.388;11.784;2023-01-08T03:26:08;8.94;85.31
68578;SHT31;61668;45.388;11.784;2023-01-08T03:28:39;8.94;85.30
68578;SHT31;61668;45.388;11.784;2023-01-08T03:31:09;8.94;85.31
68578;SHT31;61668;45.388;11.784;2023-01-08T03:33:39;8.93;85.40
68578;SHT31;61668;45.388;11.784;2023-01-08T03:36:08;8.93;85.40
68578;SHT31;61668;45.388;11.784;2023-01-08T03:38:43;8.93;85.40
68578;SHT31;61668;45.388;11.784;2023-01-08T03:41:34;8.94;85.40
68578;SHT31;61668;45.388;11.784;2023-01-08T03:44:01;8.94;85.41
68578;SHT31;61668;45.388;11.784;2023-01-08T03:46:27;8.93;85.40
68578;SHT31;61668;45.388;11.784;2023-01-08T03:48:57;8.94;85.41
68578;SHT31;61668;45.388;11.784;2023-01-08T03:51:24;8.92;85.41
68578;SHT31;61668;45.388;11.784;2023-01-08T03:53:51;8.91;85.41
68578;SHT31;61668;45.388;11.784;2023-01-08T03:56:22;8.92;85.50
68578;SHT31;61668;45.388;11.784;2023-01-08T03:58:48;8.91;85.50
68578;SHT31;61668;45.388;11.784;2023-01-08T04:01:13;8.92;85.50
68578;SHT31;61668;45.388;11.784;2023-01-08T04:03:39;8.91;85.56
68578;SHT31;61668;45.388;11.784;2023-01-08T04:06:04;8.91;85.61
68578;SHT31;61668;45.388;11.784;2023-01-08T04:08:30;8.91;85.70
68578;SHT31;61668;45.388;11.784;2023-01-08T04:10:55;8.92;85.70
68578;SHT31;61668;45.388;11.784;2023-01-08T04:13:21;8.92;85.70
68578;SHT31;61668;45.388;11.784;2023-01-08T04:15:47;8.93;85.70
68578;SHT31;61668;45.388;11.784;2023-01-08T04:18:15;8.93;85.70
68578;SHT31;61668;45.388;11.784;2023-01-08T04:20:45;8.95;85.70
68578;SHT31;61668;45.388;11.784;2023-01-08T04:23:12;8.94;85.70
68578;SHT31;61668;45.388;11.784;2023-01-08T04:25:38;8.94;85.74
68578;SHT31;61668;45.388;11.784;2023-01-08T04:28:04;8.94;85.72
68578;SHT31;61668;45.388;11.784;2023-01-08T04:30:30;8.93;85.70
68578;SHT31;61668;45.388;11.784;2023-01-08T04:32:56;8.94;85.78
68578;SHT31;61668;45.388;11.784;2023-01-08T04:35:21;8.94;85.80
68578;SHT31;61668;45.388;11.784;2023-01-08T04:37:47;8.93;85.80
68578;SHT31;61668;45.388;11.784;2023-01-08T04:40:13;8.94;85.82
68578;SHT31;61668;45.388;11.784;2023-01-08T04:42:38;8.94;85.80
68578;SHT31;61668;45.388;11.784;2023-01-08T04:45:05;8.95;85.80
68578;SHT31;61668;45.388;11.784;2023-01-08T04:47:31;8.95;85.80
68578;SHT31;61668;45.388;11.784;2023-01-08T04:49:57;8.94;85.80
68578;SHT31;61668;45.388;11.784;2023-01-08T04:52:23;8.94;85.76
68578;SHT31;61668;45.388;11.784;2023-01-08T04:54:48;8.95;85.78
68578;SHT31;61668;45.388;11.784;2023-01-08T04:57:14;8.94;85.79
68578;SHT31;61668;45.388;11.784;2023-01-08T04:59:39;8.94;85.80
68578;SHT31;61668;45.388;11.784;2023-01-08T05:02:05;8.94;85.80
68578;SHT31;61668;45.388;11.784;2023-01-08T05:04:30;8.94;85.80
68578;SHT31;61668;45.388;11.784;2023-01-08T05:06:56;8.93;85.85
68578;SHT31;61668;45.388;11.784;2023-01-08T05:09:21;8.93;85.89
68578;SHT31;61668;45.388;11.784;2023-01-08T05:11:47;8.94;85.94
68578;SHT31;61668;45.388;11.784;2023-01-08T05:14:12;8.95;85.98
68578;SHT31;61668;45.388;11.784;2023-01-08T05:16:38;8.95;86.00
68578;SHT31;61668;45.388;11.784;2023-01-08T05:19:04;8.94;86.00
68578;SHT31;61668;45.388;11.784;2023-01-08T05:21:29;8.94;86.00
68578;SHT31;61668;45.388;11.784;2023-01-08T05:23:55;8.94;86.01
68578;SHT31;61668;45.388;11.784;2023-01-08T05:26:20;8.95;86.00
68578;SHT31;61668;45.388;11.784;2023-01-08T05:28:46;8.94;86.00
68578;SHT31;61668;45.388;11.784;2023-01-08T05:31:12;8.95;86.01
68578;SHT31;61668;45.388;11.784;2023-01-08T05:33:38;8.95;86.09
68578;SHT31;61668;45.388;11.784;2023-01-08T05:36:07;8.95;86.19
68578;SHT31;61668;45.388;11.784;2023-01-08T05:38:35;8.94;86.31
68578;SHT31;61668;45.388;11.784;2023-01-08T05:41:02;8.92;86.40
68578;SHT31;61668;45.388;11.784;2023-01-08T05:43:28;8.91;86.40
68578;SHT31;61668;45.388;11.784;2023-01-08T05:45:56;8.90;86.40
68578;SHT31;61668;45.388;11.784;2023-01-08T05:48:23;8.89;86.40
68578;SHT31;61668;45.388;11.784;2023-01-08T05:50:50;8.89;86.50
68578;SHT31;61668;45.388;11.784;2023-01-08T05:53:16;8.88;86.60
68578;SHT31;61668;45.388;11.784;2023-01-08T05:55:42;8.87;86.71
68578;SHT31;61668;45.388;11.784;2023-01-08T05:58:09;8.86;86.73
68578;SHT31;61668;45.388;11.784;2023-01-08T06:00:36;8.85;86.78
68578;SHT31;61668;45.388;11.784;2023-01-08T06:03:03;8.85;86.80
68578;SHT31;61668;45.388;11.784;2023-01-08T06:05:29;8.83;86.82
68578;SHT31;61668;45.388;11.784;2023-01-08T06:07:57;8.82;86.88
68578;SHT31;61668;45.388;11.784;2023-01-08T06:10:23;8.81;86.90
68578;SHT31;61668;45.388;11.784;2023-01-08T06:12:49;8.80;86.89
68578;SHT31;61668;45.388;11.784;2023-01-08T06:15:15;8.80;86.82
68578;SHT31;61668;45.388;11.784;2023-01-08T06:17:41;8.79;86.81
68578;SHT31;61668;45.388;11.784;2023-01-08T06:20:08;8.78;86.85
68578;SHT31;61668;45.388;11.784;2023-01-08T06:22:34;8.78;86.89
68578;SHT31;61668;45.388;11.784;2023-01-08T06:25:01;8.78;86.90
68578;SHT31;61668;45.388;11.784;2023-01-08T06:27:27;8.76;86.90
68578;SHT31;61668;45.388;11.784;2023-01-08T06:29:53;8.75;86.90
68578;SHT31;61668;45.388;11.784;2023-01-08T06:32:19;8.75;86.90
68578;SHT31;61668;45.388;11.784;2023-01-08T06:34:44;8.74;86.90
68578;SHT31;61668;45.388;11.784;2023-01-08T06:37:10;8.73;86.90
68578;SHT31;61668;45.388;11.784;2023-01-08T06:39:35;8.73;86.91
68578;SHT31;61668;45.388;11.784;2023-01-08T06:42:01;8.72;86.97
68578;SHT31;61668;45.388;11.784;2023-01-08T06:44:26;8.71;87.00
68578;SHT31;61668;45.388;11.784;2023-01-08T06:46:52;8.70;87.00
68578;SHT31;61668;45.388;11.784;2023-01-08T06:49:17;8.69;87.02
68578;SHT31;61668;45.388;11.784;2023-01-08T06:51:43;8.67;87.03
68578;SHT31;61668;45.388;11.784;2023-01-08T06:54:09;8.67;87.04
68578;SHT31;61668;45.388;11.784;2023-01-08T06:56:35;8.67;87.00
68578;SHT31;61668;45.388;11.784;2023-01-08T06:59:01;8.65;86.99
68578;SHT31;61668;45.388;11.784;2023-01-08T07:01:26;8.64;86.91
68578;SHT31;61668;45.388;11.784;2023-01-08T07:03:52;8.64;86.80
68578;SHT31;61668;45.388;11.784;2023-01-08T07:06:19;8.63;86.73
68578;SHT31;61668;45.388;11.784;2023-01-08T07:08:46;8.63;86.68
68578;SHT31;61668;45.388;11.784;2023-01-08T07:11:13;8.63;86.55
68578;SHT31;61668;45.388;11.784;2023-01-08T07:13:39;8.64;86.35
68578;SHT31;61668;45.388;11.784;2023-01-08T07:16:08;8.64;86.04
68578;SHT31;61668;45.388;11.784;2023-01-08T07:18:37;8.65;85.69
68578;SHT31;61668;45.388;11.784;2023-01-08T07:21:03;8.63;85.34
68578;SHT31;61668;45.388;11.784;2023-01-08T07:23:31;8.63;85.29
68578;SHT31;61668;45.388;11.784;2023-01-08T07:26:01;8.62;85.12
68578;SHT31;61668;45.388;11.784;2023-01-08T07:28:28;8.61;84.93
68578;SHT31;61668;45.388;11.784;2023-01-08T07:30:54;8.59;84.87
68578;SHT31;61668;45.388;11.784;2023-01-08T07:33:20;8.59;84.74
68578;SHT31;61668;45.388;11.784;2023-01-08T07:35:54;8.59;84.60
68578;SHT31;61668;45.388;11.784;2023-01-08T07:38:21;8.59;84.57
68578;SHT31;61668;45.388;11.784;2023-01-08T07:40:47;8.58;84.39
68578;SHT31;61668;45.388;11.784;2023-01-08T07:43:13;8.60;84.26
68578;SHT31;61668;45.388;11.784;2023-01-08T07:45:39;8.59;84.10
68578;SHT31;61668;45.388;11.784;2023-01-08T07:48:05;8.59;84.07
68578;SHT31;61668;45.388;11.784;2023-01-08T07:50:35;8.59;83.80
68578;SHT31;61668;45.388;11.784;2023-01-08T07:53:01;8.61;83.61
68578;SHT31;61668;45.388;11.784;2023-01-08T07:55:28;8.63;83.69
68578;SHT31;61668;45.388;11.784;2023-01-08T07:57:55;8.65;83.51
68578;SHT31;61668;45.388;11.784;2023-01-08T08:00:20;8.65;83.28
68578;SHT31;61668;45.388;11.784;2023-01-08T08:02:46;8.67;83.29
68578;SHT31;61668;45.388;11.784;2023-01-08T08:05:12;8.69;83.24
68578;SHT31;61668;45.388;11.784;2023-01-08T08:07:37;8.70;83.03
68578;SHT31;61668;45.388;11.784;2023-01-08T08:10:03;8.71;83.00
68578;SHT31;61668;45.388;11.784;2023-01-08T08:12:30;8.71;82.99
68578;SHT31;61668;45.388;11.784;2023-01-08T08:14:56;8.72;82.86
68578;SHT31;61668;45.388;11.784;2023-01-08T08:17:22;8.72;82.89
68578;SHT31;61668;45.388;11.784;2023-01-08T08:19:48;8.72;82.62
68578;SHT31;61668;45.388;11.784;2023-01-08T08:22:13;8.72;82.56
68578;SHT31;61668;45.388;11.784;2023-01-08T08:24:39;8.73;82.39
68578;SHT31;61668;45.388;11.784;2023-01-08T08:27:05;8.73;82.44
68578;SHT31;61668;45.388;11.784;2023-01-08T08:29:30;8.72;82.29
68578;SHT31;61668;45.388;11.784;2023-01-08T08:31:56;8.72;82.31
68578;SHT31;61668;45.388;11.784;2023-01-08T08:34:22;8.72;82.09
68578;SHT31;61668;45.388;11.784;2023-01-08T08:36:48;8.71;82.17
68578;SHT31;61668;45.388;11.784;2023-01-08T08:39:14;8.71;82.35
68578;SHT31;61668;45.388;11.784;2023-01-08T08:41:39;8.70;82.50
68578;SHT31;61668;45.388;11.784;2023-01-08T08:44:06;8.69;82.53
68578;SHT31;61668;45.388;11.784;2023-01-08T08:46:33;8.68;82.57
68578;SHT31;61668;45.388;11.784;2023-01-08T08:48:59;8.66;82.59
68578;SHT31;61668;45.388;11.784;2023-01-08T08:51:25;8.65;82.79
68578;SHT31;61668;45.388;11.784;2023-01-08T08:53:51;8.64;82.90
68578;SHT31;61668;45.388;11.784;2023-01-08T08:56:17;8.64;82.94
68578;SHT31;61668;45.388;11.784;2023-01-08T08:58:43;8.63;82.91
68578;SHT31;61668;45.388;11.784;2023-01-08T09:01:09;8.63;82.97
68578;SHT31;61668;45.388;11.784;2023-01-08T09:03:36;8.63;82.92
68578;SHT31;61668;45.388;11.784;2023-01-08T09:06:02;8.61;82.98
68578;SHT31;61668;45.388;11.784;2023-01-08T09:08:28;8.62;83.20
68578;SHT31;61668;45.388;11.784;2023-01-08T09:10:54;8.62;83.32
68578;SHT31;61668;45.388;11.784;2023-01-08T09:13:20;8.64;83.49
68578;SHT31;61668;45.388;11.784;2023-01-08T09:15:45;8.64;83.65
68578;SHT31;61668;45.388;11.784;2023-01-08T09:18:11;8.65;83.87
68578;SHT31;61668;45.388;11.784;2023-01-08T09:20:36;8.66;83.97
68578;SHT31;61668;45.388;11.784;2023-01-08T09:23:02;8.68;84.03
68578;SHT31;61668;45.388;11.784;2023-01-08T09:25:28;8.68;84.09
68578;SHT31;61668;45.388;11.784;2023-01-08T09:28:05;8.68;84.07
68578;SHT31;61668;45.388;11.784;2023-01-08T09:30:33;8.68;84.18
68578;SHT31;61668;45.388;11.784;2023-01-08T09:33:00;8.68;84.17
68578;SHT31;61668;45.388;11.784;2023-01-08T09:35:27;8.67;84.24
68578;SHT31;61668;45.388;11.784;2023-01-08T09:37:53;8.66;84.30
68578;SHT31;61668;45.388;11.784;2023-01-08T09:40:20;8.66;84.27
68578;SHT31;61668;45.388;11.784;2023-01-08T09:42:52;8.65;84.26
68578;SHT31;61668;45.388;11.784;2023-01-08T09:45:24;8.65;84.35
68578;SHT31;61668;45.388;11.784;2023-01-08T09:47:58;8.65;84.41
68578;SHT31;61668;45.388;11.784;2023-01-08T09:50:32;8.64;84.45
68578;SHT31;61668;45.388;11.784;2023-01-08T09:52:58;8.63;84.53
68578;SHT31;61668;45.388;11.784;2023-01-08T09:55:24;8.64;84.62
68578;SHT31;61668;45.388;11.784;2023-01-08T09:57:57;8.65;84.69
68578;SHT31;61668;45.388;11.784;2023-01-08T10:00:28;8.65;84.71
68578;SHT31;61668;45.388;11.784;2023-01-08T10:02:56;8.68;84.80
68578;SHT31;61668;45.388;11.784;2023-01-08T10:05:22;8.68;84.92
68578;SHT31;61668;45.388;11.784;2023-01-08T10:07:49;8.70;85.00
68578;SHT31;61668;45.388;11.784;2023-01-08T10:12:51;8.71;85.25
68578;SHT31;61668;45.388;11.784;2023-01-08T10:15:19;8.71;85.35
68578;SHT31;61668;45.388;11.784;2023-01-08T10:20:28;8.72;85.50
68578;SHT31;61668;45.388;11.784;2023-01-08T10:22:55;8.72;85.65
68578;SHT31;61668;45.388;11.784;2023-01-08T10:25:33;8.71;85.70
68578;SHT31;61668;45.388;11.784;2023-01-08T10:28:27;8.72;85.81
68578;SHT31;61668;45.388;11.784;2023-01-08T10:31:14;8.73;85.90
68578;SHT31;61668;45.388;11.784;2023-01-08T10:36:16;8.75;86.03
68578;SHT31;61668;45.388;11.784;2023-01-08T10:38:55;8.76;86.01
68578;SHT31;61668;45.388;11.784;2023-01-08T10:41:24;8.75;85.77
68578;SHT31;61668;45.388;11.784;2023-01-08T10:46:27;8.75;85.35
68578;SHT31;61668;45.388;11.784;2023-01-08T10:49:00;8.76;85.34
68578;SHT31;61668;45.388;11.784;2023-01-08T10:51:30;8.77;85.33
68578;SHT31;61668;45.388;11.784;2023-01-08T10:53:58;8.76;85.36
68578;SHT31;61668;45.388;11.784;2023-01-08T10:56:40;8.78;85.40
68578;SHT31;61668;45.388;11.784;2023-01-08T10:59:18;8.79;85.50
68578;SHT31;61668;45.388;11.784;2023-01-08T11:01:49;8.78;85.39
68578;SHT31;61668;45.388;11.784;2023-01-08T11:04:38;8.76;85.34
68578;SHT31;61668;45.388;11.784;2023-01-08T11:07:06;8.75;85.22
68578;SHT31;61668;45.388;11.784;2023-01-08T11:09:32;8.77;85.30
68578;SHT31;61668;45.388;11.784;2023-01-08T11:14:55;8.77;85.28
68578;SHT31;61668;45.388;11.784;2023-01-08T11:17:23;8.77;85.29
68578;SHT31;61668;45.388;11.784;2023-01-08T11:19:50;8.76;85.44
68578;SHT31;61668;45.388;11.784;2023-01-08T11:22:17;8.77;85.48
68578;SHT31;61668;45.388;11.784;2023-01-08T11:24:46;8.75;85.41
68578;SHT31;61668;45.388;11.784;2023-01-08T11:27:35;8.74;85.50
68578;SHT31;61668;45.388;11.784;2023-01-08T11:30:09;8.73;85.53
68578;SHT31;61668;45.388;11.784;2023-01-08T11:35:16;8.74;85.68
68578;SHT31;61668;45.388;11.784;2023-01-08T11:37:53;8.75;85.77
68578;SHT31;61668;45.388;11.784;2023-01-08T11:51:42;8.81;85.91
68578;SHT31;61668;45.388;11.784;2023-01-08T11:54:37;8.82;85.92
68578;SHT31;61668;45.388;11.784;2023-01-08T12:17:44;8.70;85.97
68578;SHT31;61668;45.388;11.784;2023-01-08T12:20:47;8.68;86.01
68578;SHT31;61668;45.388;11.784;2023-01-08T12:24:29;8.65;86.10
68578;SHT31;61668;45.388;11.784;2023-01-08T12:32:16;8.59;86.32
68578;SHT31;61668;45.388;11.784;2023-01-08T12:38:14;8.55;86.48
68578;SHT31;61668;45.388;11.784;2023-01-08T12:40:49;8.52;86.58
68578;SHT31;61668;45.388;11.784;2023-01-08T12:44:03;8.52;86.63
68578;SHT31;61668;45.388;11.784;2023-01-08T12:46:36;8.52;86.70
68578;SHT31;61668;45.388;11.784;2023-01-08T12:49:08;8.49;86.75
68578;SHT31;61668;45.388;11.784;2023-01-08T12:56:54;8.49;86.84
68578;SHT31;61668;45.388;11.784;2023-01-08T13:07:56;8.50;87.04
68578;SHT31;61668;45.388;11.784;2023-01-08T13:13:03;8.50;86.97
68578;SHT31;61668;45.388;11.784;2023-01-08T13:15:31;8.50;86.98
68578;SHT31;61668;45.388;11.784;2023-01-08T13:18:04;8.50;86.98
68578;SHT31;61668;45.388;11.784;2023-01-08T13:20:54;8.48;86.97
68578;SHT31;61668;45.388;11.784;2023-01-08T13:23:23;8.47;86.94
68578;SHT31;61668;45.388;11.784;2023-01-08T13:25:52;8.45;87.00
68578;SHT31;61668;45.388;11.784;2023-01-08T13:30:49;8.44;86.99
68578;SHT31;61668;45.388;11.784;2023-01-08T13:33:26;8.44;86.99
68578;SHT31;61668;45.388;11.784;2023-01-08T13:39:01;8.43;87.04
68578;SHT31;61668;45.388;11.784;2023-01-08T13:41:37;8.44;87.04
68578;SHT31;61668;45.388;11.784;2023-01-08T13:44:25;8.43;87.06
68578;SHT31;61668;45.388;11.784;2023-01-08T13:46:54;8.42;87.02
68578;SHT31;61668;45.388;11.784;2023-01-08T13:49:42;8.42;87.07
68578;SHT31;61668;45.388;11.784;2023-01-08T13:55:35;8.42;87.00
68578;SHT31;61668;45.388;11.784;2023-01-08T13:58:08;8.41;87.02
68578;SHT31;61668;45.388;11.784;2023-01-08T14:05:51;8.39;87.25
68578;SHT31;61668;45.388;11.784;2023-01-08T14:08:28;8.38;87.32
68578;SHT31;61668;45.388;11.784;2023-01-08T14:10:54;8.37;87.32
68578;SHT31;61668;45.388;11.784;2023-01-08T14:13:21;8.36;87.37
68578;SHT31;61668;45.388;11.784;2023-01-08T14:15:54;8.35;87.45
68578;SHT31;61668;45.388;11.784;2023-01-08T14:18:26;8.33;87.50
68578;SHT31;61668;45.388;11.784;2023-01-08T14:20:53;8.33;87.53
68578;SHT31;61668;45.388;11.784;2023-01-08T14:23:22;8.33;87.53
68578;SHT31;61668;45.388;11.784;2023-01-08T14:25:52;8.31;87.64
68578;SHT31;61668;45.388;11.784;2023-01-08T14:28:19;8.31;87.73
68578;SHT31;61668;45.388;11.784;2023-01-08T14:30:51;8.30;87.78
68578;SHT31;61668;45.388;11.784;2023-01-08T14:33:38;8.30;87.87
68578;SHT31;61668;45.388;11.784;2023-01-08T14:36:06;8.29;87.90
68578;SHT31;61668;45.388;11.784;2023-01-08T14:38:32;8.30;87.96
68578;SHT31;61668;45.388;11.784;2023-01-08T14:43:28;8.30;88.01
68578;SHT31;61668;45.388;11.784;2023-01-08T14:46:03;8.31;88.09
68578;SHT31;61668;45.388;11.784;2023-01-08T14:48:42;8.31;88.13
68578;SHT31;61668;45.388;11.784;2023-01-08T14:51:10;8.31;88.21
68578;SHT31;61668;45.388;11.784;2023-01-08T14:53:54;8.32;88.22
68578;SHT31;61668;45.388;11.784;2023-01-08T14:56:26;8.32;88.29
68578;SHT31;61668;45.388;11.784;2023-01-08T14:58:55;8.32;88.33
68578;SHT31;61668;45.388;11.784;2023-01-08T15:01:23;8.33;88.40
68578;SHT31;61668;45.388;11.784;2023-01-08T15:04:13;8.33;88.41
68578;SHT31;61668;45.388;11.784;2023-01-08T15:06:44;8.30;88.42
68578;SHT31;61668;45.388;11.784;2023-01-08T15:09:25;8.29;88.49
68578;SHT31;61668;45.388;11.784;2023-01-08T15:11:55;8.29;88.52
68578;SHT31;61668;45.388;11.784;2023-01-08T15:14:32;8.27;88.60
68578;SHT31;61668;45.388;11.784;2023-01-08T15:17:07;8.27;88.63
68578;SHT31;61668;45.388;11.784;2023-01-08T15:19:47;8.26;88.64
68578;SHT31;61668;45.388;11.784;2023-01-08T15:22:20;8.25;88.69
68578;SHT31;61668;45.388;11.784;2023-01-08T15:25:35;8.24;88.70
68578;SHT31;61668;45.388;11.784;2023-01-08T15:27:51;8.23;88.72
68578;SHT31;61668;45.388;11.784;2023-01-08T15:30:32;8.24;88.74
68578;SHT31;61668;45.388;11.784;2023-01-08T15:33:05;8.23;88.86
68578;SHT31;61668;45.388;11.784;2023-01-08T15:35:54;8.22;88.80
68578;SHT31;61668;45.388;11.784;2023-01-08T15:38:20;8.22;88.85
68578;SHT31;61668;45.388;11.784;2023-01-08T15:40:48;8.22;88.88
68578;SHT31;61668;45.388;11.784;2023-01-08T15:43:16;8.21;88.90
68578;SHT31;61668;45.388;11.784;2023-01-08T15:45:44;8.21;88.90
68578;SHT31;61668;45.388;11.784;2023-01-08T15:48:12;8.21;88.94
68578;SHT31;61668;45.388;11.784;2023-01-08T15:50:38;8.20;88.96
68578;SHT31;61668;45.388;11.784;2023-01-08T15:53:15;8.20;88.99
68578;SHT31;61668;45.388;11.784;2023-01-08T15:55:48;8.20;89.03
68578;SHT31;61668;45.388;11.784;2023-01-08T15:58:14;8.20;89.10
68578;SHT31;61668;45.388;11.784;2023-01-08T16:00:40;8.19;89.09
68578;SHT31;61668;45.388;11.784;2023-01-08T16:03:10;8.18;89.11
68578;SHT31;61668;45.388;11.784;2023-01-08T16:05:37;8.18;89.12
68578;SHT31;61668;45.388;11.784;2023-01-08T16:08:03;8.17;89.15
68578;SHT31;61668;45.388;11.784;2023-01-08T16:10:30;8.17;89.19
68578;SHT31;61668;45.388;11.784;2023-01-08T16:12:58;8.16;89.15
68578;SHT31;61668;45.388;11.784;2023-01-08T16:15:25;8.16;89.18
68578;SHT31;61668;45.388;11.784;2023-01-08T16:17:52;8.15;89.20
68578;SHT31;61668;45.388;11.784;2023-01-08T16:20:18;8.15;89.21
68578;SHT31;61668;45.388;11.784;2023-01-08T16:22:45;8.14;89.21
68578;SHT31;61668;45.388;11.784;2023-01-08T16:25:11;8.15;89.22
68578;SHT31;61668;45.388;11.784;2023-01-08T16:27:37;8.13;89.20
68578;SHT31;61668;45.388;11.784;2023-01-08T16:30:05;8.13;89.22
68578;SHT31;61668;45.388;11.784;2023-01-08T16:32:33;8.13;89.29
68578;SHT31;61668;45.388;11.784;2023-01-08T16:34:58;8.13;89.30
68578;SHT31;61668;45.388;11.784;2023-01-08T16:37:24;8.12;89.32
68578;SHT31;61668;45.388;11.784;2023-01-08T16:39:49;8.12;89.37
68578;SHT31;61668;45.388;11.784;2023-01-08T16:42:15;8.12;89.40
68578;SHT31;61668;45.388;11.784;2023-01-08T16:44:40;8.12;89.37
68578;SHT31;61668;45.388;11.784;2023-01-08T16:47:06;8.12;89.39
68578;SHT31;61668;45.388;11.784;2023-01-08T16:49:32;8.11;89.40
68578;SHT31;61668;45.388;11.784;2023-01-08T16:51:59;8.10;89.46
68578;SHT31;61668;45.388;11.784;2023-01-08T16:54:25;8.10;89.49
68578;SHT31;61668;45.388;11.784;2023-01-08T16:56:51;8.09;89.49
68578;SHT31;61668;45.388;11.784;2023-01-08T16:59:18;8.10;89.50
68578;SHT31;61668;45.388;11.784;2023-01-08T17:01:45;8.10;89.51
68578;SHT31;61668;45.388;11.784;2023-01-08T17:04:10;8.10;89.53
68578;SHT31;61668;45.388;11.784;2023-01-08T17:06:36;8.09;89.60
68578;SHT31;61668;45.388;11.784;2023-01-08T17:09:02;8.09;89.60
68578;SHT31;61668;45.388;11.784;2023-01-08T17:11:28;8.10;89.58
68578;SHT31;61668;45.388;11.784;2023-01-08T17:13:56;8.10;89.60
68578;SHT31;61668;45.388;11.784;2023-01-08T17:16:22;8.10;89.60
68578;SHT31;61668;45.388;11.784;2023-01-08T17:18:47;8.11;89.61
68578;SHT31;61668;45.388;11.784;2023-01-08T17:21:13;8.12;89.62
68578;SHT31;61668;45.388;11.784;2023-01-08T17:23:39;8.12;89.61
68578;SHT31;61668;45.388;11.784;2023-01-08T17:26:07;8.12;89.62
68578;SHT31;61668;45.388;11.784;2023-01-08T17:28:35;8.13;89.60
68578;SHT31;61668;45.388;11.784;2023-01-08T17:31:04;8.13;89.60
68578;SHT31;61668;45.388;11.784;2023-01-08T17:33:35;8.14;89.60
68578;SHT31;61668;45.388;11.784;2023-01-08T17:36:09;8.14;89.60
68578;SHT31;61668;45.388;11.784;2023-01-08T17:38:44;8.16;89.60
68578;SHT31;61668;45.388;11.784;2023-01-08T17:41:11;8.17;89.60
68578;SHT31;61668;45.388;11.784;2023-01-08T17:43:57;8.16;89.60
68578;SHT31;61668;45.388;11.784;2023-01-08T17:46:24;8.17;89.60